Strona główna
METAR-TAF:

METAR-TAF

Lotnisko :

Port lotniczy Sultan Aji Muhammad Sulaiman

Balikpapan, Indonezja

Szerokość geograficzna: 01-16-06S, Długość geograficzna: 116-53-40E, wysokość: 4 m

METAR: brakujący

czas: 05:58 (22:58 UTC)

Prognoza

Raport powstał 5 godziny i 58 minut temu, godzina 17:00 UTC
Prognoza ważna od 10 godzina 18 UTC do 11 godzina 24 UTC
Wiatr 5 kt od zachód
Widzialność: 8000 m
Mało chmury na wysokości 1800 ft, Cumulusy wypiętrznone.
Rozproszone chmury na wysokości 2000 ft
Stopniowe zmiany
od 10 godzina 18 UTC do 10 godzina 20 UTC
Rozproszone chmury na wysokości 2000 ft

TAF: WALL 101700Z 1018/1124 26005KT 8000 FEW018TCU SCT020 BECMG 1018/1020 SCT020

Obserwacja i prognoza pogody dla ponad 4000 lotnisk (raport METAR i TAF).

Dostępne stacje oznaczono żółtymi i czerwonymi punktami na mapie.

Najedź kursorem aby zobaczyć nazwę stacji.

Kliknij aby zobaczyć obserwacje i prognozy pogody.

Aby zmienić mapę: kliknij na zielony przycisk z czarnym krzyżykiem, aby powiększyć; na zielony przycisk z myślnikiem, aby pomniejszyć; na zielone strzałki, aby przejść do map sąsiednich.


METAR-TAF: